sensor_id;sensor_type;location;lat;lon;timestamp;P1;durP1;ratioP1;P2;durP2;ratioP2
81036;SDS011;70521;47.468;19.306;2023-10-09T00:01:07;6.75;;;6.38;;
81036;SDS011;70521;47.468;19.306;2023-10-09T00:04:14;6.40;;;6.03;;
81036;SDS011;70521;47.468;19.306;2023-10-09T00:07:16;4.05;;;3.75;;
81036;SDS011;70521;47.468;19.306;2023-10-09T00:10:17;4.68;;;4.20;;
81036;SDS011;70521;47.468;19.306;2023-10-09T00:13:20;8.52;;;8.10;;
81036;SDS011;70521;47.468;19.306;2023-10-09T00:16:27;7.53;;;7.13;;
81036;SDS011;70521;47.468;19.306;2023-10-09T00:19:35;10.23;;;9.73;;
81036;SDS011;70521;47.468;19.306;2023-10-09T00:22:37;9.13;;;8.65;;
81036;SDS011;70521;47.468;19.306;2023-10-09T00:25:49;7.70;;;7.30;;
81036;SDS011;70521;47.468;19.306;2023-10-09T00:29:07;6.68;;;6.38;;
81036;SDS011;70521;47.468;19.306;2023-10-09T00:32:09;4.95;;;4.65;;
81036;SDS011;70521;47.468;19.306;2023-10-09T00:35:27;9.10;;;8.65;;
81036;SDS011;70521;47.468;19.306;2023-10-09T00:38:51;4.47;;;4.15;;
81036;SDS011;70521;47.468;19.306;2023-10-09T00:41:53;5.57;;;5.18;;
81036;SDS011;70521;47.468;19.306;2023-10-09T00:44:55;6.65;;;6.28;;
81036;SDS011;70521;47.468;19.306;2023-10-09T00:47:56;8.52;;;8.07;;
81036;SDS011;70521;47.468;19.306;2023-10-09T00:50:59;6.45;;;5.88;;
81036;SDS011;70521;47.468;19.306;2023-10-09T00:54:02;4.43;;;4.13;;
81036;SDS011;70521;47.468;19.306;2023-10-09T00:57:14;6.28;;;5.88;;
81036;SDS011;70521;47.468;19.306;2023-10-09T01:00:17;9.15;;;8.68;;
81036;SDS011;70521;47.468;19.306;2023-10-09T01:03:33;7.32;;;6.80;;
81036;SDS011;70521;47.468;19.306;2023-10-09T01:06:34;4.97;;;4.53;;
81036;SDS011;70521;47.468;19.306;2023-10-09T01:09:43;4.90;;;4.50;;
81036;SDS011;70521;47.468;19.306;2023-10-09T01:12:45;6.28;;;5.18;;
81036;SDS011;70521;47.468;19.306;2023-10-09T01:15:48;5.38;;;4.88;;
81036;SDS011;70521;47.468;19.306;2023-10-09T01:18:55;5.72;;;5.15;;
81036;SDS011;70521;47.468;19.306;2023-10-09T01:22:00;8.57;;;7.15;;
81036;SDS011;70521;47.468;19.306;2023-10-09T01:25:15;9.77;;;9.05;;
81036;SDS011;70521;47.468;19.306;2023-10-09T01:28:16;8.90;;;6.15;;
81036;SDS011;70521;47.468;19.306;2023-10-09T01:31:19;6.30;;;5.80;;
81036;SDS011;70521;47.468;19.306;2023-10-09T01:37:25;5.05;;;4.65;;
81036;SDS011;70521;47.468;19.306;2023-10-09T01:40:27;4.50;;;4.10;;
81036;SDS011;70521;47.468;19.306;2023-10-09T01:43:37;5.63;;;5.22;;
81036;SDS011;70521;47.468;19.306;2023-10-09T01:46:39;5.72;;;5.43;;
81036;SDS011;70521;47.468;19.306;2023-10-09T01:49:40;5.03;;;4.60;;
81036;SDS011;70521;47.468;19.306;2023-10-09T01:52:44;5.78;;;5.28;;
81036;SDS011;70521;47.468;19.306;2023-10-09T01:55:45;7.47;;;6.97;;
81036;SDS011;70521;47.468;19.306;2023-10-09T01:58:46;6.55;;;6.03;;
81036;SDS011;70521;47.468;19.306;2023-10-09T02:01:48;8.43;;;7.82;;
81036;SDS011;70521;47.468;19.306;2023-10-09T02:04:49;5.88;;;5.47;;
81036;SDS011;70521;47.468;19.306;2023-10-09T02:07:50;5.55;;;5.15;;
81036;SDS011;70521;47.468;19.306;2023-10-09T02:10:54;6.60;;;6.20;;
81036;SDS011;70521;47.468;19.306;2023-10-09T02:13:57;8.32;;;7.72;;
81036;SDS011;70521;47.468;19.306;2023-10-09T02:16:58;6.13;;;5.63;;
81036;SDS011;70521;47.468;19.306;2023-10-09T02:20:18;7.72;;;7.32;;
81036;SDS011;70521;47.468;19.306;2023-10-09T02:23:30;8.77;;;8.27;;
81036;SDS011;70521;47.468;19.306;2023-10-09T02:26:50;6.68;;;6.20;;
81036;SDS011;70521;47.468;19.306;2023-10-09T02:29:51;5.78;;;5.38;;
81036;SDS011;70521;47.468;19.306;2023-10-09T02:32:54;5.80;;;5.40;;
81036;SDS011;70521;47.468;19.306;2023-10-09T02:36:07;5.53;;;5.03;;
81036;SDS011;70521;47.468;19.306;2023-10-09T02:39:09;7.78;;;7.25;;
81036;SDS011;70521;47.468;19.306;2023-10-09T02:42:23;4.82;;;4.28;;
81036;SDS011;70521;47.468;19.306;2023-10-09T02:45:26;9.45;;;8.70;;
81036;SDS011;70521;47.468;19.306;2023-10-09T02:48:35;7.85;;;7.35;;
81036;SDS011;70521;47.468;19.306;2023-10-09T02:51:37;6.65;;;5.32;;
81036;SDS011;70521;47.468;19.306;2023-10-09T02:54:48;5.82;;;5.32;;
81036;SDS011;70521;47.468;19.306;2023-10-09T02:57:55;7.57;;;7.10;;
81036;SDS011;70521;47.468;19.306;2023-10-09T03:01:12;8.38;;;7.78;;
81036;SDS011;70521;47.468;19.306;2023-10-09T03:04:14;6.18;;;5.60;;
81036;SDS011;70521;47.468;19.306;2023-10-09T03:07:16;6.00;;;5.60;;
81036;SDS011;70521;47.468;19.306;2023-10-09T03:10:17;6.03;;;5.28;;
81036;SDS011;70521;47.468;19.306;2023-10-09T03:13:18;5.45;;;5.05;;
81036;SDS011;70521;47.468;19.306;2023-10-09T03:16:20;7.63;;;7.20;;
81036;SDS011;70521;47.468;19.306;2023-10-09T03:19:21;6.60;;;6.10;;
81036;SDS011;70521;47.468;19.306;2023-10-09T03:22:22;5.72;;;5.05;;
81036;SDS011;70521;47.468;19.306;2023-10-09T03:25:24;5.07;;;4.72;;
81036;SDS011;70521;47.468;19.306;2023-10-09T03:28:29;6.18;;;5.65;;
81036;SDS011;70521;47.468;19.306;2023-10-09T03:31:29;5.10;;;4.70;;
81036;SDS011;70521;47.468;19.306;2023-10-09T03:34:34;6.63;;;6.10;;
81036;SDS011;70521;47.468;19.306;2023-10-09T03:37:35;6.40;;;6.00;;
81036;SDS011;70521;47.468;19.306;2023-10-09T03:40:36;6.03;;;5.53;;
81036;SDS011;70521;47.468;19.306;2023-10-09T03:43:39;7.70;;;7.20;;
81036;SDS011;70521;47.468;19.306;2023-10-09T03:46:46;4.65;;;4.30;;
81036;SDS011;70521;47.468;19.306;2023-10-09T03:49:47;6.00;;;5.50;;
81036;SDS011;70521;47.468;19.306;2023-10-09T03:52:51;5.00;;;4.57;;
81036;SDS011;70521;47.468;19.306;2023-10-09T03:55:52;7.18;;;6.57;;
81036;SDS011;70521;47.468;19.306;2023-10-09T03:58:53;5.75;;;5.35;;
81036;SDS011;70521;47.468;19.306;2023-10-09T04:01:55;4.75;;;4.35;;
81036;SDS011;70521;47.468;19.306;2023-10-09T04:04:58;6.20;;;5.60;;
81036;SDS011;70521;47.468;19.306;2023-10-09T04:08:00;7.13;;;6.47;;
81036;SDS011;70521;47.468;19.306;2023-10-09T04:11:03;7.13;;;6.63;;
81036;SDS011;70521;47.468;19.306;2023-10-09T04:14:04;5.32;;;4.90;;
81036;SDS011;70521;47.468;19.306;2023-10-09T04:17:11;7.90;;;7.40;;
81036;SDS011;70521;47.468;19.306;2023-10-09T04:20:30;5.85;;;5.45;;
81036;SDS011;70521;47.468;19.306;2023-10-09T04:23:51;7.70;;;7.30;;
81036;SDS011;70521;47.468;19.306;2023-10-09T04:27:10;4.40;;;4.00;;
81036;SDS011;70521;47.468;19.306;2023-10-09T04:30:13;5.18;;;4.78;;
81036;SDS011;70521;47.468;19.306;2023-10-09T04:33:16;4.28;;;3.88;;
81036;SDS011;70521;47.468;19.306;2023-10-09T04:36:43;5.22;;;4.72;;
81036;SDS011;70521;47.468;19.306;2023-10-09T04:39:47;6.10;;;5.60;;
81036;SDS011;70521;47.468;19.306;2023-10-09T04:42:48;7.10;;;6.57;;
81036;SDS011;70521;47.468;19.306;2023-10-09T04:45:59;4.55;;;4.25;;
81036;SDS011;70521;47.468;19.306;2023-10-09T04:49:13;4.07;;;3.78;;
81036;SDS011;70521;47.468;19.306;2023-10-09T04:52:30;4.07;;;3.78;;
81036;SDS011;70521;47.468;19.306;2023-10-09T04:55:31;7.85;;;7.32;;
81036;SDS011;70521;47.468;19.306;2023-10-09T04:58:39;5.07;;;4.63;;
81036;SDS011;70521;47.468;19.306;2023-10-09T05:01:40;6.35;;;5.78;;
81036;SDS011;70521;47.468;19.306;2023-10-09T05:04:47;5.70;;;5.30;;
81036;SDS011;70521;47.468;19.306;2023-10-09T05:07:52;6.97;;;6.50;;
81036;SDS011;70521;47.468;19.306;2023-10-09T05:10:56;5.20;;;4.80;;
81036;SDS011;70521;47.468;19.306;2023-10-09T05:14:02;4.90;;;4.53;;
81036;SDS011;70521;47.468;19.306;2023-10-09T05:17:12;5.90;;;5.40;;
81036;SDS011;70521;47.468;19.306;2023-10-09T05:20:16;5.55;;;5.15;;
81036;SDS011;70521;47.468;19.306;2023-10-09T05:23:26;5.00;;;4.60;;
81036;SDS011;70521;47.468;19.306;2023-10-09T05:26:27;6.13;;;4.65;;
81036;SDS011;70521;47.468;19.306;2023-10-09T05:29:49;5.60;;;5.10;;
81036;SDS011;70521;47.468;19.306;2023-10-09T05:32:59;5.45;;;5.05;;
81036;SDS011;70521;47.468;19.306;2023-10-09T05:36:20;5.03;;;3.92;;
81036;SDS011;70521;47.468;19.306;2023-10-09T05:39:21;5.05;;;4.55;;
81036;SDS011;70521;47.468;19.306;2023-10-09T05:42:52;4.22;;;3.83;;
81036;SDS011;70521;47.468;19.306;2023-10-09T05:46:00;5.25;;;3.92;;
81036;SDS011;70521;47.468;19.306;2023-10-09T05:49:10;5.63;;;5.20;;
81036;SDS011;70521;47.468;19.306;2023-10-09T05:52:21;5.82;;;5.32;;
81036;SDS011;70521;47.468;19.306;2023-10-09T05:55:40;4.28;;;3.97;;
81036;SDS011;70521;47.468;19.306;2023-10-09T05:59:00;4.28;;;3.88;;
81036;SDS011;70521;47.468;19.306;2023-10-09T06:02:06;5.63;;;4.05;;
81036;SDS011;70521;47.468;19.306;2023-10-09T06:05:07;4.78;;;3.78;;
81036;SDS011;70521;47.468;19.306;2023-10-09T06:08:29;5.97;;;5.50;;
81036;SDS011;70521;47.468;19.306;2023-10-09T06:11:43;5.35;;;4.68;;
81036;SDS011;70521;47.468;19.306;2023-10-09T06:14:50;5.63;;;4.05;;
81036;SDS011;70521;47.468;19.306;2023-10-09T06:17:58;5.75;;;5.05;;
81036;SDS011;70521;47.468;19.306;2023-10-09T06:21:20;5.38;;;4.22;;
81036;SDS011;70521;47.468;19.306;2023-10-09T06:24:40;8.57;;;4.70;;
81036;SDS011;70521;47.468;19.306;2023-10-09T06:27:54;4.05;;;3.42;;
81036;SDS011;70521;47.468;19.306;2023-10-09T06:30:58;5.15;;;4.47;;
81036;SDS011;70521;47.468;19.306;2023-10-09T06:34:19;4.60;;;4.20;;
81036;SDS011;70521;47.468;19.306;2023-10-09T06:37:21;6.18;;;5.65;;
81036;SDS011;70521;47.468;19.306;2023-10-09T06:40:39;4.90;;;4.50;;
81036;SDS011;70521;47.468;19.306;2023-10-09T06:43:58;6.00;;;5.45;;
81036;SDS011;70521;47.468;19.306;2023-10-09T06:47:06;6.10;;;4.88;;
81036;SDS011;70521;47.468;19.306;2023-10-09T06:50:12;4.55;;;3.72;;
81036;SDS011;70521;47.468;19.306;2023-10-09T06:53:25;4.93;;;4.53;;
81036;SDS011;70521;47.468;19.306;2023-10-09T06:56:29;4.32;;;4.03;;
81036;SDS011;70521;47.468;19.306;2023-10-09T06:59:30;4.15;;;3.75;;
81036;SDS011;70521;47.468;19.306;2023-10-09T07:02:51;3.88;;;3.47;;
81036;SDS011;70521;47.468;19.306;2023-10-09T07:06:02;3.83;;;3.08;;
81036;SDS011;70521;47.468;19.306;2023-10-09T07:09:05;5.10;;;4.22;;
81036;SDS011;70521;47.468;19.306;2023-10-09T07:12:06;4.43;;;4.00;;
81036;SDS011;70521;47.468;19.306;2023-10-09T07:15:10;7.00;;;6.25;;
81036;SDS011;70521;47.468;19.306;2023-10-09T07:18:12;4.35;;;4.05;;
81036;SDS011;70521;47.468;19.306;2023-10-09T07:21:20;6.47;;;5.97;;
81036;SDS011;70521;47.468;19.306;2023-10-09T07:24:31;5.88;;;4.78;;
81036;SDS011;70521;47.468;19.306;2023-10-09T07:27:44;6.15;;;5.55;;
81036;SDS011;70521;47.468;19.306;2023-10-09T07:30:45;6.25;;;3.75;;
81036;SDS011;70521;47.468;19.306;2023-10-09T07:33:47;5.15;;;3.85;;
81036;SDS011;70521;47.468;19.306;2023-10-09T07:37:00;5.35;;;4.95;;
81036;SDS011;70521;47.468;19.306;2023-10-09T07:40:04;4.50;;;4.18;;
81036;SDS011;70521;47.468;19.306;2023-10-09T07:43:08;4.85;;;4.55;;
81036;SDS011;70521;47.468;19.306;2023-10-09T07:46:17;5.43;;;4.43;;
81036;SDS011;70521;47.468;19.306;2023-10-09T07:49:30;4.93;;;4.47;;
81036;SDS011;70521;47.468;19.306;2023-10-09T07:52:32;5.25;;;4.85;;
81036;SDS011;70521;47.468;19.306;2023-10-09T07:55:33;4.93;;;3.70;;
81036;SDS011;70521;47.468;19.306;2023-10-09T07:58:40;4.35;;;4.05;;
81036;SDS011;70521;47.468;19.306;2023-10-09T08:01:48;5.45;;;4.68;;
81036;SDS011;70521;47.468;19.306;2023-10-09T08:05:04;4.07;;;3.72;;
81036;SDS011;70521;47.468;19.306;2023-10-09T08:08:19;3.95;;;3.65;;
81036;SDS011;70521;47.468;19.306;2023-10-09T08:11:30;4.28;;;3.88;;
81036;SDS011;70521;47.468;19.306;2023-10-09T08:14:46;3.58;;;3.28;;
81036;SDS011;70521;47.468;19.306;2023-10-09T08:21:08;3.25;;;2.95;;
81036;SDS011;70521;47.468;19.306;2023-10-09T08:24:12;3.03;;;2.83;;
81036;SDS011;70521;47.468;19.306;2023-10-09T08:27:41;3.13;;;2.80;;
81036;SDS011;70521;47.468;19.306;2023-10-09T08:30:55;3.70;;;3.40;;
81036;SDS011;70521;47.468;19.306;2023-10-09T08:33:56;4.75;;;4.45;;
81036;SDS011;70521;47.468;19.306;2023-10-09T08:36:58;4.70;;;4.20;;
81036;SDS011;70521;47.468;19.306;2023-10-09T08:40:01;3.88;;;3.58;;
81036;SDS011;70521;47.468;19.306;2023-10-09T08:43:21;5.95;;;4.60;;
81036;SDS011;70521;47.468;19.306;2023-10-09T08:46:23;3.95;;;3.33;;
81036;SDS011;70521;47.468;19.306;2023-10-09T08:49:27;4.18;;;3.78;;
81036;SDS011;70521;47.468;19.306;2023-10-09T08:52:28;6.07;;;3.80;;
81036;SDS011;70521;47.468;19.306;2023-10-09T08:55:29;4.88;;;4.57;;
81036;SDS011;70521;47.468;19.306;2023-10-09T08:58:30;5.55;;;3.70;;
81036;SDS011;70521;47.468;19.306;2023-10-09T09:01:33;5.18;;;4.55;;
81036;SDS011;70521;47.468;19.306;2023-10-09T09:04:39;4.05;;;3.40;;
81036;SDS011;70521;47.468;19.306;2023-10-09T09:07:40;4.90;;;3.63;;
81036;SDS011;70521;47.468;19.306;2023-10-09T09:10:43;3.50;;;2.80;;
81036;SDS011;70521;47.468;19.306;2023-10-09T09:13:48;3.58;;;3.28;;
81036;SDS011;70521;47.468;19.306;2023-10-09T09:17:08;3.90;;;3.50;;
81036;SDS011;70521;47.468;19.306;2023-10-09T09:20:18;5.03;;;3.22;;
81036;SDS011;70521;47.468;19.306;2023-10-09T09:23:23;4.38;;;4.03;;
81036;SDS011;70521;47.468;19.306;2023-10-09T09:26:35;3.72;;;3.42;;
81036;SDS011;70521;47.468;19.306;2023-10-09T09:29:45;5.45;;;2.90;;
81036;SDS011;70521;47.468;19.306;2023-10-09T09:32:56;5.85;;;5.25;;
81036;SDS011;70521;47.468;19.306;2023-10-09T09:36:23;7.47;;;6.93;;
81036;SDS011;70521;47.468;19.306;2023-10-09T09:39:27;5.75;;;3.88;;
81036;SDS011;70521;47.468;19.306;2023-10-09T09:42:28;3.78;;;3.45;;
81036;SDS011;70521;47.468;19.306;2023-10-09T09:45:33;5.50;;;5.10;;
81036;SDS011;70521;47.468;19.306;2023-10-09T09:48:38;5.20;;;4.70;;
81036;SDS011;70521;47.468;19.306;2023-10-09T09:51:45;3.55;;;3.25;;
81036;SDS011;70521;47.468;19.306;2023-10-09T09:54:47;4.95;;;3.70;;
81036;SDS011;70521;47.468;19.306;2023-10-09T09:57:50;4.97;;;3.15;;
81036;SDS011;70521;47.468;19.306;2023-10-09T10:00:52;3.17;;;2.88;;
81036;SDS011;70521;47.468;19.306;2023-10-09T10:03:59;5.78;;;3.53;;
81036;SDS011;70521;47.468;19.306;2023-10-09T10:07:02;4.78;;;2.70;;
81036;SDS011;70521;47.468;19.306;2023-10-09T10:17:01;3.03;;;2.55;;
81036;SDS011;70521;47.468;19.306;2023-10-09T10:20:06;3.53;;;2.40;;
81036;SDS011;70521;47.468;19.306;2023-10-09T10:23:17;4.57;;;2.60;;
81036;SDS011;70521;47.468;19.306;2023-10-09T10:26:18;3.72;;;2.85;;
81036;SDS011;70521;47.468;19.306;2023-10-09T10:29:26;4.72;;;2.63;;
81036;SDS011;70521;47.468;19.306;2023-10-09T10:32:52;2.95;;;2.65;;
81036;SDS011;70521;47.468;19.306;2023-10-09T10:35:51;3.03;;;2.72;;
81036;SDS011;70521;47.468;19.306;2023-10-09T10:38:59;3.45;;;2.53;;
81036;SDS011;70521;47.468;19.306;2023-10-09T10:42:10;5.13;;;4.60;;
81036;SDS011;70521;47.468;19.306;2023-10-09T10:45:34;3.13;;;2.83;;
81036;SDS011;70521;47.468;19.306;2023-10-09T10:48:36;2.75;;;2.30;;
81036;SDS011;70521;47.468;19.306;2023-10-09T10:51:40;2.70;;;1.92;;
81036;SDS011;70521;47.468;19.306;2023-10-09T10:54:41;2.40;;;2.10;;
81036;SDS011;70521;47.468;19.306;2023-10-09T10:57:42;4.43;;;2.42;;
81036;SDS011;70521;47.468;19.306;2023-10-09T11:01:03;3.83;;;1.90;;
81036;SDS011;70521;47.468;19.306;2023-10-09T11:04:12;3.05;;;1.90;;
81036;SDS011;70521;47.468;19.306;2023-10-09T11:07:14;2.75;;;2.30;;
81036;SDS011;70521;47.468;19.306;2023-10-09T11:10:27;5.00;;;2.35;;
81036;SDS011;70521;47.468;19.306;2023-10-09T11:13:30;2.95;;;1.85;;
81036;SDS011;70521;47.468;19.306;2023-10-09T11:16:31;3.55;;;2.55;;
81036;SDS011;70521;47.468;19.306;2023-10-09T11:19:43;2.20;;;1.80;;
81036;SDS011;70521;47.468;19.306;2023-10-09T11:22:44;3.88;;;2.45;;
81036;SDS011;70521;47.468;19.306;2023-10-09T11:26:05;3.22;;;1.80;;
81036;SDS011;70521;47.468;19.306;2023-10-09T11:29:24;3.00;;;2.10;;
81036;SDS011;70521;47.468;19.306;2023-10-09T11:32:25;3.55;;;2.35;;
81036;SDS011;70521;47.468;19.306;2023-10-09T11:35:27;3.85;;;2.22;;
81036;SDS011;70521;47.468;19.306;2023-10-09T11:38:35;4.30;;;2.42;;
81036;SDS011;70521;47.468;19.306;2023-10-09T11:41:39;4.78;;;2.72;;
81036;SDS011;70521;47.468;19.306;2023-10-09T11:44:42;4.00;;;2.60;;
81036;SDS011;70521;47.468;19.306;2023-10-09T11:47:47;4.57;;;2.75;;
81036;SDS011;70521;47.468;19.306;2023-10-09T11:51:00;3.80;;;2.40;;
81036;SDS011;70521;47.468;19.306;2023-10-09T11:54:04;3.70;;;2.72;;
81036;SDS011;70521;47.468;19.306;2023-10-09T11:57:09;3.83;;;2.65;;
81036;SDS011;70521;47.468;19.306;2023-10-09T12:00:10;5.05;;;4.65;;
81036;SDS011;70521;47.468;19.306;2023-10-09T12:03:30;4.13;;;2.47;;
81036;SDS011;70521;47.468;19.306;2023-10-09T12:06:31;3.20;;;2.40;;
81036;SDS011;70521;47.468;19.306;2023-10-09T12:09:33;3.00;;;2.22;;
81036;SDS011;70521;47.468;19.306;2023-10-09T12:12:35;4.00;;;2.13;;
81036;SDS011;70521;47.468;19.306;2023-10-09T12:15:37;3.92;;;2.50;;
81036;SDS011;70521;47.468;19.306;2023-10-09T12:18:38;4.35;;;2.92;;
81036;SDS011;70521;47.468;19.306;2023-10-09T12:21:43;5.13;;;2.65;;
81036;SDS011;70521;47.468;19.306;2023-10-09T12:24:44;3.30;;;2.33;;
81036;SDS011;70521;47.468;19.306;2023-10-09T12:27:46;3.90;;;3.58;;
81036;SDS011;70521;47.468;19.306;2023-10-09T12:30:48;4.85;;;3.33;;
81036;SDS011;70521;47.468;19.306;2023-10-09T12:33:52;19.10;;;14.45;;
81036;SDS011;70521;47.468;19.306;2023-10-09T12:36:54;9.68;;;7.55;;
81036;SDS011;70521;47.468;19.306;2023-10-09T12:39:55;3.97;;;3.10;;
81036;SDS011;70521;47.468;19.306;2023-10-09T12:42:57;5.93;;;2.58;;
81036;SDS011;70521;47.468;19.306;2023-10-09T12:45:59;4.78;;;3.60;;
81036;SDS011;70521;47.468;19.306;2023-10-09T12:49:07;5.00;;;3.40;;
81036;SDS011;70521;47.468;19.306;2023-10-09T12:52:08;3.45;;;2.60;;
81036;SDS011;70521;47.468;19.306;2023-10-09T12:55:18;7.75;;;5.18;;
81036;SDS011;70521;47.468;19.306;2023-10-09T12:58:20;5.25;;;4.75;;
81036;SDS011;70521;47.468;19.306;2023-10-09T13:01:22;4.65;;;4.18;;
81036;SDS011;70521;47.468;19.306;2023-10-09T13:04:23;4.03;;;2.55;;
81036;SDS011;70521;47.468;19.306;2023-10-09T13:07:24;4.25;;;2.78;;
81036;SDS011;70521;47.468;19.306;2023-10-09T13:10:26;4.97;;;2.53;;
81036;SDS011;70521;47.468;19.306;2023-10-09T13:16:43;5.40;;;4.18;;
81036;SDS011;70521;47.468;19.306;2023-10-09T13:19:44;4.68;;;3.20;;
81036;SDS011;70521;47.468;19.306;2023-10-09T13:22:45;6.15;;;3.22;;
81036;SDS011;70521;47.468;19.306;2023-10-09T13:25:48;4.70;;;3.60;;
81036;SDS011;70521;47.468;19.306;2023-10-09T13:28:50;5.38;;;3.78;;
81036;SDS011;70521;47.468;19.306;2023-10-09T13:31:52;4.75;;;3.30;;
81036;SDS011;70521;47.468;19.306;2023-10-09T13:38:03;6.97;;;4.07;;
81036;SDS011;70521;47.468;19.306;2023-10-09T13:41:09;4.93;;;3.40;;
81036;SDS011;70521;47.468;19.306;2023-10-09T13:44:13;3.63;;;3.28;;
81036;SDS011;70521;47.468;19.306;2023-10-09T13:47:14;4.53;;;3.08;;
81036;SDS011;70521;47.468;19.306;2023-10-09T13:50:20;4.68;;;3.65;;
81036;SDS011;70521;47.468;19.306;2023-10-09T13:53:22;4.65;;;3.38;;
81036;SDS011;70521;47.468;19.306;2023-10-09T13:56:27;4.75;;;3.78;;
81036;SDS011;70521;47.468;19.306;2023-10-09T13:59:28;6.72;;;3.60;;
81036;SDS011;70521;47.468;19.306;2023-10-09T14:02:29;11.25;;;4.72;;
81036;SDS011;70521;47.468;19.306;2023-10-09T14:05:30;5.28;;;3.50;;
81036;SDS011;70521;47.468;19.306;2023-10-09T14:08:31;5.00;;;2.65;;
81036;SDS011;70521;47.468;19.306;2023-10-09T14:11:32;4.00;;;3.40;;
81036;SDS011;70521;47.468;19.306;2023-10-09T14:14:39;5.32;;;3.40;;
81036;SDS011;70521;47.468;19.306;2023-10-09T14:17:42;4.97;;;3.80;;
81036;SDS011;70521;47.468;19.306;2023-10-09T14:20:43;4.68;;;4.03;;
81036;SDS011;70521;47.468;19.306;2023-10-09T14:23:44;6.32;;;5.38;;
81036;SDS011;70521;47.468;19.306;2023-10-09T14:26:47;4.60;;;4.20;;
81036;SDS011;70521;47.468;19.306;2023-10-09T14:29:53;4.65;;;3.88;;
81036;SDS011;70521;47.468;19.306;2023-10-09T14:32:57;5.72;;;3.53;;
81036;SDS011;70521;47.468;19.306;2023-10-09T14:35:58;6.18;;;4.07;;
81036;SDS011;70521;47.468;19.306;2023-10-09T14:39:00;7.28;;;3.97;;
81036;SDS011;70521;47.468;19.306;2023-10-09T14:42:01;5.78;;;4.53;;
81036;SDS011;70521;47.468;19.306;2023-10-09T14:45:03;5.97;;;5.32;;
81036;SDS011;70521;47.468;19.306;2023-10-09T14:48:08;7.35;;;5.15;;
81036;SDS011;70521;47.468;19.306;2023-10-09T14:51:12;8.13;;;7.30;;
81036;SDS011;70521;47.468;19.306;2023-10-09T14:54:14;9.27;;;5.82;;
81036;SDS011;70521;47.468;19.306;2023-10-09T14:57:18;7.25;;;5.07;;
81036;SDS011;70521;47.468;19.306;2023-10-09T15:00:19;5.70;;;4.78;;
81036;SDS011;70521;47.468;19.306;2023-10-09T15:03:23;5.80;;;4.22;;
81036;SDS011;70521;47.468;19.306;2023-10-09T15:06:25;5.18;;;4.13;;
81036;SDS011;70521;47.468;19.306;2023-10-09T15:09:28;5.50;;;4.60;;
81036;SDS011;70521;47.468;19.306;2023-10-09T15:12:30;7.75;;;5.22;;
81036;SDS011;70521;47.468;19.306;2023-10-09T15:15:31;6.80;;;4.85;;
81036;SDS011;70521;47.468;19.306;2023-10-09T15:18:32;9.43;;;5.07;;
81036;SDS011;70521;47.468;19.306;2023-10-09T15:21:38;5.50;;;4.97;;
81036;SDS011;70521;47.468;19.306;2023-10-09T15:24:44;17.98;;;13.27;;
81036;SDS011;70521;47.468;19.306;2023-10-09T15:27:45;23.17;;;16.80;;
81036;SDS011;70521;47.468;19.306;2023-10-09T15:30:47;9.70;;;8.45;;
81036;SDS011;70521;47.468;19.306;2023-10-09T15:33:48;14.30;;;9.23;;
81036;SDS011;70521;47.468;19.306;2023-10-09T15:36:52;16.13;;;12.23;;
81036;SDS011;70521;47.468;19.306;2023-10-09T15:39:54;14.98;;;10.57;;
81036;SDS011;70521;47.468;19.306;2023-10-09T15:42:55;11.23;;;8.50;;
81036;SDS011;70521;47.468;19.306;2023-10-09T15:45:57;7.20;;;6.47;;
81036;SDS011;70521;47.468;19.306;2023-10-09T15:48:59;5.97;;;5.15;;
81036;SDS011;70521;47.468;19.306;2023-10-09T15:52:01;10.43;;;7.75;;
81036;SDS011;70521;47.468;19.306;2023-10-09T15:55:02;11.88;;;8.90;;
81036;SDS011;70521;47.468;19.306;2023-10-09T15:58:03;9.63;;;7.40;;
81036;SDS011;70521;47.468;19.306;2023-10-09T16:01:04;8.20;;;6.97;;
81036;SDS011;70521;47.468;19.306;2023-10-09T16:04:06;10.43;;;6.90;;
81036;SDS011;70521;47.468;19.306;2023-10-09T16:07:11;7.50;;;6.35;;
81036;SDS011;70521;47.468;19.306;2023-10-09T16:10:12;9.55;;;7.00;;
81036;SDS011;70521;47.468;19.306;2023-10-09T16:13:13;8.93;;;6.18;;
81036;SDS011;70521;47.468;19.306;2023-10-09T16:16:14;6.47;;;5.05;;
81036;SDS011;70521;47.468;19.306;2023-10-09T16:19:15;6.15;;;4.80;;
81036;SDS011;70521;47.468;19.306;2023-10-09T16:22:16;7.70;;;6.65;;
81036;SDS011;70521;47.468;19.306;2023-10-09T16:25:18;9.48;;;7.47;;
81036;SDS011;70521;47.468;19.306;2023-10-09T16:28:27;6.30;;;5.70;;
81036;SDS011;70521;47.468;19.306;2023-10-09T16:31:28;5.22;;;4.72;;
81036;SDS011;70521;47.468;19.306;2023-10-09T16:34:36;5.97;;;4.57;;
81036;SDS011;70521;47.468;19.306;2023-10-09T16:37:39;8.27;;;4.95;;
81036;SDS011;70521;47.468;19.306;2023-10-09T16:40:41;8.00;;;6.93;;
81036;SDS011;70521;47.468;19.306;2023-10-09T16:43:52;5.78;;;5.00;;
81036;SDS011;70521;47.468;19.306;2023-10-09T16:46:53;7.20;;;6.32;;
81036;SDS011;70521;47.468;19.306;2023-10-09T16:49:55;6.20;;;5.22;;
81036;SDS011;70521;47.468;19.306;2023-10-09T16:52:56;6.90;;;5.53;;
81036;SDS011;70521;47.468;19.306;2023-10-09T16:56:00;6.70;;;4.80;;
81036;SDS011;70521;47.468;19.306;2023-10-09T16:59:01;5.93;;;5.03;;
81036;SDS011;70521;47.468;19.306;2023-10-09T17:02:05;7.15;;;5.28;;
81036;SDS011;70521;47.468;19.306;2023-10-09T17:05:07;6.15;;;5.35;;
81036;SDS011;70521;47.468;19.306;2023-10-09T17:08:10;9.23;;;6.22;;
81036;SDS011;70521;47.468;19.306;2023-10-09T17:11:11;9.38;;;7.00;;
81036;SDS011;70521;47.468;19.306;2023-10-09T17:14:16;7.75;;;6.63;;
81036;SDS011;70521;47.468;19.306;2023-10-09T17:17:20;6.68;;;5.20;;
81036;SDS011;70521;47.468;19.306;2023-10-09T17:20:24;5.95;;;5.05;;
81036;SDS011;70521;47.468;19.306;2023-10-09T17:23:27;7.35;;;5.40;;
81036;SDS011;70521;47.468;19.306;2023-10-09T17:26:28;5.45;;;4.43;;
81036;SDS011;70521;47.468;19.306;2023-10-09T17:29:30;4.35;;;3.95;;
81036;SDS011;70521;47.468;19.306;2023-10-09T17:32:33;6.10;;;4.85;;
81036;SDS011;70521;47.468;19.306;2023-10-09T17:35:38;5.90;;;5.30;;
81036;SDS011;70521;47.468;19.306;2023-10-09T17:38:39;7.05;;;5.53;;
81036;SDS011;70521;47.468;19.306;2023-10-09T17:41:40;7.07;;;4.85;;
81036;SDS011;70521;47.468;19.306;2023-10-09T17:44:41;6.47;;;5.20;;
81036;SDS011;70521;47.468;19.306;2023-10-09T17:47:43;6.13;;;4.85;;
81036;SDS011;70521;47.468;19.306;2023-10-09T17:50:46;5.20;;;4.53;;
81036;SDS011;70521;47.468;19.306;2023-10-09T17:53:47;9.30;;;8.50;;
81036;SDS011;70521;47.468;19.306;2023-10-09T17:56:51;5.75;;;5.25;;
81036;SDS011;70521;47.468;19.306;2023-10-09T17:59:53;9.35;;;6.47;;
81036;SDS011;70521;47.468;19.306;2023-10-09T18:02:56;7.32;;;5.82;;
81036;SDS011;70521;47.468;19.306;2023-10-09T18:05:57;8.80;;;8.00;;
81036;SDS011;70521;47.468;19.306;2023-10-09T18:08:59;9.85;;;7.40;;
81036;SDS011;70521;47.468;19.306;2023-10-09T18:12:00;7.95;;;7.15;;
81036;SDS011;70521;47.468;19.306;2023-10-09T18:15:04;12.70;;;8.60;;
81036;SDS011;70521;47.468;19.306;2023-10-09T18:18:06;10.90;;;9.90;;
81036;SDS011;70521;47.468;19.306;2023-10-09T18:21:10;11.48;;;10.25;;
81036;SDS011;70521;47.468;19.306;2023-10-09T18:24:11;8.73;;;7.82;;
81036;SDS011;70521;47.468;19.306;2023-10-09T18:27:14;7.20;;;6.47;;
81036;SDS011;70521;47.468;19.306;2023-10-09T18:30:17;7.63;;;5.82;;
81036;SDS011;70521;47.468;19.306;2023-10-09T18:33:19;7.70;;;5.63;;
81036;SDS011;70521;47.468;19.306;2023-10-09T18:36:21;8.40;;;6.72;;
81036;SDS011;70521;47.468;19.306;2023-10-09T18:39:23;6.15;;;5.57;;